sensor_id;sensor_type;location;lat;lon;timestamp;noise_LAeq;noise_LA_min;noise_LA_max;noise_LA01;noise_LA95
72686;Laerm;61365;52.162;4.500;2023-08-08T00:01:45;41.53;34.37;44.28;;
72686;Laerm;61365;52.162;4.500;2023-08-08T00:04:11;41.48;33.55;44.00;;
72686;Laerm;61365;52.162;4.500;2023-08-08T00:06:37;41.55;34.34;45.79;;
72686;Laerm;61365;52.162;4.500;2023-08-08T00:09:04;41.58;32.43;44.35;;
72686;Laerm;61365;52.162;4.500;2023-08-08T00:11:30;41.55;33.61;44.83;;
72686;Laerm;61365;52.162;4.500;2023-08-08T00:13:57;41.59;32.96;44.13;;
72686;Laerm;61365;52.162;4.500;2023-08-08T00:16:23;41.62;33.19;44.69;;
72686;Laerm;61365;52.162;4.500;2023-08-08T00:18:49;41.68;33.98;44.74;;
72686;Laerm;61365;52.162;4.500;2023-08-08T00:21:16;41.71;34.30;44.22;;
72686;Laerm;61365;52.162;4.500;2023-08-08T00:23:42;41.69;33.95;46.05;;
72686;Laerm;61365;52.162;4.500;2023-08-08T00:26:09;41.74;33.04;44.24;;
72686;Laerm;61365;52.162;4.500;2023-08-08T00:28:35;41.64;34.67;44.09;;
72686;Laerm;61365;52.162;4.500;2023-08-08T00:31:01;41.61;35.11;43.83;;
72686;Laerm;61365;52.162;4.500;2023-08-08T00:33:27;41.69;34.24;43.99;;
72686;Laerm;61365;52.162;4.500;2023-08-08T00:35:53;41.73;33.00;47.10;;
72686;Laerm;61365;52.162;4.500;2023-08-08T00:38:19;41.70;34.56;43.92;;
72686;Laerm;61365;52.162;4.500;2023-08-08T00:40:45;41.74;33.13;44.53;;
72686;Laerm;61365;52.162;4.500;2023-08-08T00:43:11;41.72;33.24;44.14;;
72686;Laerm;61365;52.162;4.500;2023-08-08T00:45:38;41.73;34.13;44.26;;
72686;Laerm;61365;52.162;4.500;2023-08-08T00:48:06;41.74;33.78;44.27;;
72686;Laerm;61365;52.162;4.500;2023-08-08T00:50:32;41.76;35.22;44.60;;
72686;Laerm;61365;52.162;4.500;2023-08-08T00:52:58;41.66;34.79;44.24;;
72686;Laerm;61365;52.162;4.500;2023-08-08T00:55:24;41.67;34.66;45.78;;
72686;Laerm;61365;52.162;4.500;2023-08-08T00:57:50;41.66;33.89;44.10;;
72686;Laerm;61365;52.162;4.500;2023-08-08T01:00:16;41.77;35.66;44.24;;
72686;Laerm;61365;52.162;4.500;2023-08-08T01:02:43;41.82;35.53;43.98;;
72686;Laerm;61365;52.162;4.500;2023-08-08T01:05:09;41.78;32.56;45.89;;
72686;Laerm;61365;52.162;4.500;2023-08-08T01:07:57;41.74;34.83;44.25;;
72686;Laerm;61365;52.162;4.500;2023-08-08T01:10:29;41.67;35.34;44.40;;
72686;Laerm;61365;52.162;4.500;2023-08-08T01:13:05;41.76;34.89;45.85;;
72686;Laerm;61365;52.162;4.500;2023-08-08T01:15:34;41.76;34.81;44.13;;
72686;Laerm;61365;52.162;4.500;2023-08-08T01:18:05;41.72;36.11;44.16;;
72686;Laerm;61365;52.162;4.500;2023-08-08T01:20:32;41.79;35.75;44.57;;
72686;Laerm;61365;52.162;4.500;2023-08-08T01:23:33;41.84;34.56;44.41;;
72686;Laerm;61365;52.162;4.500;2023-08-08T01:25:57;41.76;34.03;44.41;;
72686;Laerm;61365;52.162;4.500;2023-08-08T01:28:24;41.76;34.89;44.37;;
72686;Laerm;61365;52.162;4.500;2023-08-08T01:30:51;41.76;35.41;44.80;;
72686;Laerm;61365;52.162;4.500;2023-08-08T01:33:17;41.79;34.86;44.28;;
72686;Laerm;61365;52.162;4.500;2023-08-08T01:35:47;41.73;35.00;44.57;;
72686;Laerm;61365;52.162;4.500;2023-08-08T01:38:38;41.76;34.27;44.44;;
72686;Laerm;61365;52.162;4.500;2023-08-08T01:41:07;41.83;34.91;44.12;;
72686;Laerm;61365;52.162;4.500;2023-08-08T01:43:35;41.73;34.11;44.07;;
72686;Laerm;61365;52.162;4.500;2023-08-08T01:46:03;41.75;33.13;44.23;;
72686;Laerm;61365;52.162;4.500;2023-08-08T01:48:30;41.74;33.51;44.48;;
72686;Laerm;61365;52.162;4.500;2023-08-08T01:50:56;41.84;35.92;44.94;;
72686;Laerm;61365;52.162;4.500;2023-08-08T01:53:22;41.83;34.86;44.41;;
72686;Laerm;61365;52.162;4.500;2023-08-08T01:55:49;41.81;35.95;44.20;;
72686;Laerm;61365;52.162;4.500;2023-08-08T01:58:15;41.75;35.18;44.17;;
72686;Laerm;61365;52.162;4.500;2023-08-08T02:00:41;41.80;35.50;44.31;;
72686;Laerm;61365;52.162;4.500;2023-08-08T02:03:09;41.87;35.00;44.23;;
72686;Laerm;61365;52.162;4.500;2023-08-08T02:05:36;41.84;36.01;44.39;;
72686;Laerm;61365;52.162;4.500;2023-08-08T02:08:02;41.83;36.19;44.53;;
72686;Laerm;61365;52.162;4.500;2023-08-08T02:10:28;41.84;35.21;44.56;;
72686;Laerm;61365;52.162;4.500;2023-08-08T02:12:54;41.93;33.88;44.24;;
72686;Laerm;61365;52.162;4.500;2023-08-08T02:15:20;41.80;33.29;44.16;;
72686;Laerm;61365;52.162;4.500;2023-08-08T02:17:46;41.90;36.17;44.12;;
72686;Laerm;61365;52.162;4.500;2023-08-08T02:20:13;41.97;35.99;44.34;;
72686;Laerm;61365;52.162;4.500;2023-08-08T02:22:39;41.96;33.71;44.70;;
72686;Laerm;61365;52.162;4.500;2023-08-08T02:25:05;41.98;35.67;45.17;;
72686;Laerm;61365;52.162;4.500;2023-08-08T02:27:31;42.02;35.75;44.64;;
72686;Laerm;61365;52.162;4.500;2023-08-08T02:29:57;41.95;33.85;44.26;;
72686;Laerm;61365;52.162;4.500;2023-08-08T02:32:24;41.61;35.89;44.00;;
72686;Laerm;61365;52.162;4.500;2023-08-08T02:34:50;41.55;32.22;44.05;;
72686;Laerm;61365;52.162;4.500;2023-08-08T02:37:16;41.66;36.44;44.57;;
72686;Laerm;61365;52.162;4.500;2023-08-08T02:39:44;41.78;36.26;44.12;;
72686;Laerm;61365;52.162;4.500;2023-08-08T02:42:10;41.83;33.16;44.44;;
72686;Laerm;61365;52.162;4.500;2023-08-08T02:44:36;41.78;34.98;44.18;;
72686;Laerm;61365;52.162;4.500;2023-08-08T02:47:02;41.72;36.88;44.56;;
72686;Laerm;61365;52.162;4.500;2023-08-08T02:49:28;41.70;33.29;44.11;;
72686;Laerm;61365;52.162;4.500;2023-08-08T02:51:55;41.73;35.84;44.14;;
72686;Laerm;61365;52.162;4.500;2023-08-08T02:54:21;41.75;35.97;44.61;;
72686;Laerm;61365;52.162;4.500;2023-08-08T02:56:47;41.77;34.04;44.36;;
72686;Laerm;61365;52.162;4.500;2023-08-08T02:59:13;41.77;35.10;44.22;;
72686;Laerm;61365;52.162;4.500;2023-08-08T03:01:39;41.86;34.61;44.45;;
72686;Laerm;61365;52.162;4.500;2023-08-08T03:04:06;41.71;34.51;46.63;;
72686;Laerm;61365;52.162;4.500;2023-08-08T03:06:32;41.81;35.59;45.22;;
72686;Laerm;61365;52.162;4.500;2023-08-08T03:08:58;41.81;34.78;44.82;;
72686;Laerm;61365;52.162;4.500;2023-08-08T03:11:24;41.81;34.01;44.55;;
72686;Laerm;61365;52.162;4.500;2023-08-08T03:13:50;41.86;35.14;44.83;;
72686;Laerm;61365;52.162;4.500;2023-08-08T03:16:16;41.70;34.70;44.44;;
72686;Laerm;61365;52.162;4.500;2023-08-08T03:18:42;41.90;35.15;44.38;;
72686;Laerm;61365;52.162;4.500;2023-08-08T03:21:08;41.81;35.46;44.22;;
72686;Laerm;61365;52.162;4.500;2023-08-08T03:23:34;41.80;34.57;44.24;;
72686;Laerm;61365;52.162;4.500;2023-08-08T03:26:01;41.85;35.09;44.85;;
72686;Laerm;61365;52.162;4.500;2023-08-08T03:28:27;41.89;34.37;44.39;;
72686;Laerm;61365;52.162;4.500;2023-08-08T03:30:53;41.93;34.43;44.35;;
72686;Laerm;61365;52.162;4.500;2023-08-08T03:33:19;42.20;36.48;44.75;;
72686;Laerm;61365;52.162;4.500;2023-08-08T03:35:45;42.28;33.69;45.38;;
72686;Laerm;61365;52.162;4.500;2023-08-08T03:38:11;42.03;35.68;44.42;;
72686;Laerm;61365;52.162;4.500;2023-08-08T03:40:37;41.94;34.57;44.19;;
72686;Laerm;61365;52.162;4.500;2023-08-08T03:43:03;41.87;33.88;44.35;;
72686;Laerm;61365;52.162;4.500;2023-08-08T03:45:30;41.83;32.36;44.26;;
72686;Laerm;61365;52.162;4.500;2023-08-08T03:47:56;41.84;35.34;44.13;;
72686;Laerm;61365;52.162;4.500;2023-08-08T03:50:22;41.84;35.79;44.29;;
72686;Laerm;61365;52.162;4.500;2023-08-08T03:52:48;41.79;34.07;44.30;;
72686;Laerm;61365;52.162;4.500;2023-08-08T03:55:15;41.94;34.77;44.48;;
72686;Laerm;61365;52.162;4.500;2023-08-08T03:57:41;41.91;35.14;44.44;;
72686;Laerm;61365;52.162;4.500;2023-08-08T04:00:08;42.09;34.76;44.63;;
72686;Laerm;61365;52.162;4.500;2023-08-08T04:02:34;41.94;35.28;44.59;;
72686;Laerm;61365;52.162;4.500;2023-08-08T04:05:00;42.09;34.88;44.49;;
72686;Laerm;61365;52.162;4.500;2023-08-08T04:07:26;41.85;35.29;44.48;;
72686;Laerm;61365;52.162;4.500;2023-08-08T04:09:52;41.83;35.38;44.41;;
72686;Laerm;61365;52.162;4.500;2023-08-08T04:12:18;41.83;34.60;44.42;;
72686;Laerm;61365;52.162;4.500;2023-08-08T04:14:44;41.89;35.57;44.14;;
72686;Laerm;61365;52.162;4.500;2023-08-08T04:17:10;41.88;36.53;44.39;;
72686;Laerm;61365;52.162;4.500;2023-08-08T04:19:37;41.94;33.80;44.34;;
72686;Laerm;61365;52.162;4.500;2023-08-08T04:22:04;42.04;35.92;44.84;;
72686;Laerm;61365;52.162;4.500;2023-08-08T04:24:30;41.93;34.78;46.68;;
72686;Laerm;61365;52.162;4.500;2023-08-08T04:26:56;41.93;34.70;44.27;;
72686;Laerm;61365;52.162;4.500;2023-08-08T04:29:22;41.97;36.40;44.46;;
72686;Laerm;61365;52.162;4.500;2023-08-08T04:31:48;42.21;34.93;44.74;;
72686;Laerm;61365;52.162;4.500;2023-08-08T04:34:14;42.07;33.71;44.70;;
72686;Laerm;61365;52.162;4.500;2023-08-08T04:36:40;41.97;33.09;44.33;;
72686;Laerm;61365;52.162;4.500;2023-08-08T04:39:06;41.98;32.87;44.59;;
72686;Laerm;61365;52.162;4.500;2023-08-08T04:41:33;41.96;32.76;44.62;;
72686;Laerm;61365;52.162;4.500;2023-08-08T04:43:59;41.91;36.61;44.33;;
72686;Laerm;61365;52.162;4.500;2023-08-08T04:46:25;41.70;33.27;44.39;;
72686;Laerm;61365;52.162;4.500;2023-08-08T04:48:51;41.72;33.74;44.04;;
72686;Laerm;61365;52.162;4.500;2023-08-08T04:51:17;41.69;35.67;47.15;;
72686;Laerm;61365;52.162;4.500;2023-08-08T04:53:43;41.76;35.74;44.77;;
72686;Laerm;61365;52.162;4.500;2023-08-08T04:56:09;41.77;32.77;44.54;;
72686;Laerm;61365;52.162;4.500;2023-08-08T04:58:35;41.69;34.22;44.16;;
72686;Laerm;61365;52.162;4.500;2023-08-08T05:01:01;41.69;34.34;44.69;;
72686;Laerm;61365;52.162;4.500;2023-08-08T05:03:28;41.70;35.06;45.62;;
72686;Laerm;61365;52.162;4.500;2023-08-08T05:05:54;41.53;36.27;43.97;;
72686;Laerm;61365;52.162;4.500;2023-08-08T05:08:21;41.58;33.72;44.30;;
72686;Laerm;61365;52.162;4.500;2023-08-08T05:10:47;41.66;36.50;44.35;;
72686;Laerm;61365;52.162;4.500;2023-08-08T05:13:13;41.62;34.84;44.04;;
72686;Laerm;61365;52.162;4.500;2023-08-08T05:15:39;41.62;34.46;44.10;;
72686;Laerm;61365;52.162;4.500;2023-08-08T05:18:05;41.63;36.84;44.16;;
72686;Laerm;61365;52.162;4.500;2023-08-08T05:20:31;41.50;34.11;44.14;;
72686;Laerm;61365;52.162;4.500;2023-08-08T05:22:57;41.54;35.20;44.33;;
72686;Laerm;61365;52.162;4.500;2023-08-08T05:25:23;41.82;35.71;44.90;;
72686;Laerm;61365;52.162;4.500;2023-08-08T05:27:52;41.90;35.63;44.18;;
72686;Laerm;61365;52.162;4.500;2023-08-08T05:30:19;41.75;36.83;44.54;;
72686;Laerm;61365;52.162;4.500;2023-08-08T05:32:46;41.84;36.01;47.12;;
72686;Laerm;61365;52.162;4.500;2023-08-08T05:35:13;41.84;35.23;44.64;;
72686;Laerm;61365;52.162;4.500;2023-08-08T05:37:39;41.89;35.16;44.79;;
72686;Laerm;61365;52.162;4.500;2023-08-08T05:40:05;41.85;34.94;44.68;;
72686;Laerm;61365;52.162;4.500;2023-08-08T05:42:32;41.74;33.17;44.14;;
72686;Laerm;61365;52.162;4.500;2023-08-08T05:45:00;41.76;35.52;44.23;;
72686;Laerm;61365;52.162;4.500;2023-08-08T05:47:27;41.84;33.92;44.45;;
72686;Laerm;61365;52.162;4.500;2023-08-08T05:49:53;41.72;36.15;44.31;;
72686;Laerm;61365;52.162;4.500;2023-08-08T05:52:19;41.76;33.71;44.60;;
72686;Laerm;61365;52.162;4.500;2023-08-08T05:54:47;41.79;34.35;45.00;;
72686;Laerm;61365;52.162;4.500;2023-08-08T05:57:13;41.65;33.79;44.94;;
72686;Laerm;61365;52.162;4.500;2023-08-08T05:59:39;41.65;34.32;44.64;;
72686;Laerm;61365;52.162;4.500;2023-08-08T06:02:05;41.68;35.24;44.12;;
72686;Laerm;61365;52.162;4.500;2023-08-08T06:04:31;41.68;36.14;44.31;;
72686;Laerm;61365;52.162;4.500;2023-08-08T06:06:58;41.65;34.30;44.92;;
72686;Laerm;61365;52.162;4.500;2023-08-08T06:09:25;41.77;34.60;44.79;;
72686;Laerm;61365;52.162;4.500;2023-08-08T06:11:51;41.60;35.70;44.43;;
72686;Laerm;61365;52.162;4.500;2023-08-08T06:14:17;41.32;34.01;44.42;;
72686;Laerm;61365;52.162;4.500;2023-08-08T06:16:43;41.16;33.41;43.56;;
72686;Laerm;61365;52.162;4.500;2023-08-08T06:19:09;41.27;34.00;43.99;;
72686;Laerm;61365;52.162;4.500;2023-08-08T06:21:36;41.38;33.68;44.81;;
72686;Laerm;61365;52.162;4.500;2023-08-08T06:24:02;41.29;32.62;43.66;;
72686;Laerm;61365;52.162;4.500;2023-08-08T06:26:28;41.26;33.87;44.15;;
72686;Laerm;61365;52.162;4.500;2023-08-08T06:28:54;41.31;33.75;44.42;;
72686;Laerm;61365;52.162;4.500;2023-08-08T06:31:20;41.19;34.66;44.18;;
72686;Laerm;61365;52.162;4.500;2023-08-08T06:33:47;41.37;34.29;47.44;;
72686;Laerm;61365;52.162;4.500;2023-08-08T06:36:14;41.11;33.41;43.79;;
72686;Laerm;61365;52.162;4.500;2023-08-08T06:38:40;41.17;33.88;44.28;;
72686;Laerm;61365;52.162;4.500;2023-08-08T06:41:06;41.22;32.27;44.71;;
72686;Laerm;61365;52.162;4.500;2023-08-08T06:43:32;41.23;32.32;43.86;;
72686;Laerm;61365;52.162;4.500;2023-08-08T06:45:58;41.24;31.67;44.41;;
72686;Laerm;61365;52.162;4.500;2023-08-08T06:48:25;41.21;32.99;43.89;;
72686;Laerm;61365;52.162;4.500;2023-08-08T06:50:51;41.18;30.94;44.08;;
72686;Laerm;61365;52.162;4.500;2023-08-08T06:53:17;41.40;33.10;44.14;;
72686;Laerm;61365;52.162;4.500;2023-08-08T06:55:44;41.37;34.85;44.05;;
72686;Laerm;61365;52.162;4.500;2023-08-08T06:58:10;41.33;33.17;43.81;;
72686;Laerm;61365;52.162;4.500;2023-08-08T07:00:36;41.15;33.28;45.05;;
72686;Laerm;61365;52.162;4.500;2023-08-08T07:03:02;41.20;35.22;43.93;;
72686;Laerm;61365;52.162;4.500;2023-08-08T07:05:28;41.16;33.52;43.68;;
72686;Laerm;61365;52.162;4.500;2023-08-08T07:07:55;41.20;33.42;43.45;;
72686;Laerm;61365;52.162;4.500;2023-08-08T07:10:21;41.19;31.90;43.67;;
72686;Laerm;61365;52.162;4.500;2023-08-08T07:12:47;41.18;32.86;43.57;;
72686;Laerm;61365;52.162;4.500;2023-08-08T07:15:14;41.24;36.26;43.69;;
72686;Laerm;61365;52.162;4.500;2023-08-08T07:17:40;41.23;34.19;43.50;;
72686;Laerm;61365;52.162;4.500;2023-08-08T07:20:07;41.24;32.93;44.35;;
72686;Laerm;61365;52.162;4.500;2023-08-08T07:22:34;41.24;34.12;43.64;;
72686;Laerm;61365;52.162;4.500;2023-08-08T07:25:00;41.29;33.38;43.58;;
72686;Laerm;61365;52.162;4.500;2023-08-08T07:27:27;41.20;32.81;43.75;;
72686;Laerm;61365;52.162;4.500;2023-08-08T07:29:53;41.23;32.86;43.45;;
72686;Laerm;61365;52.162;4.500;2023-08-08T07:32:19;41.28;32.08;43.68;;
72686;Laerm;61365;52.162;4.500;2023-08-08T07:34:45;41.28;33.37;43.75;;
72686;Laerm;61365;52.162;4.500;2023-08-08T07:37:14;41.26;32.74;44.19;;
72686;Laerm;61365;52.162;4.500;2023-08-08T07:39:40;41.29;32.89;43.68;;
72686;Laerm;61365;52.162;4.500;2023-08-08T07:42:06;41.20;31.17;43.62;;
72686;Laerm;61365;52.162;4.500;2023-08-08T07:44:32;41.19;32.75;44.24;;
72686;Laerm;61365;52.162;4.500;2023-08-08T07:47:00;41.28;33.80;43.49;;
72686;Laerm;61365;52.162;4.500;2023-08-08T07:49:26;41.27;32.67;44.45;;
72686;Laerm;61365;52.162;4.500;2023-08-08T07:51:52;41.26;33.27;43.51;;
72686;Laerm;61365;52.162;4.500;2023-08-08T07:54:18;41.22;32.35;43.49;;
72686;Laerm;61365;52.162;4.500;2023-08-08T07:56:44;41.32;33.96;43.60;;
72686;Laerm;61365;52.162;4.500;2023-08-08T07:59:11;41.34;32.88;44.06;;
72686;Laerm;61365;52.162;4.500;2023-08-08T08:01:37;41.28;32.76;43.64;;
72686;Laerm;61365;52.162;4.500;2023-08-08T08:04:03;41.27;33.24;43.68;;
72686;Laerm;61365;52.162;4.500;2023-08-08T08:06:29;41.30;32.75;43.74;;
72686;Laerm;61365;52.162;4.500;2023-08-08T08:08:55;41.24;33.42;43.83;;
72686;Laerm;61365;52.162;4.500;2023-08-08T08:11:21;41.30;32.18;43.98;;
72686;Laerm;61365;52.162;4.500;2023-08-08T08:13:48;41.25;32.43;44.47;;
72686;Laerm;61365;52.162;4.500;2023-08-08T08:16:14;41.27;34.17;43.92;;
72686;Laerm;61365;52.162;4.500;2023-08-08T08:18:40;41.28;32.22;43.66;;
72686;Laerm;61365;52.162;4.500;2023-08-08T08:21:06;41.30;34.59;43.77;;
72686;Laerm;61365;52.162;4.500;2023-08-08T08:23:32;41.15;31.87;43.63;;
72686;Laerm;61365;52.162;4.500;2023-08-08T08:25:59;41.19;33.90;43.60;;
72686;Laerm;61365;52.162;4.500;2023-08-08T08:28:25;41.27;33.63;43.62;;
72686;Laerm;61365;52.162;4.500;2023-08-08T08:30:52;41.18;31.97;43.71;;
72686;Laerm;61365;52.162;4.500;2023-08-08T08:33:18;41.19;31.61;43.56;;
72686;Laerm;61365;52.162;4.500;2023-08-08T08:35:44;41.26;34.05;43.98;;
72686;Laerm;61365;52.162;4.500;2023-08-08T08:38:11;41.34;33.20;43.92;;
72686;Laerm;61365;52.162;4.500;2023-08-08T08:40:40;41.26;33.19;44.06;;
72686;Laerm;61365;52.162;4.500;2023-08-08T08:43:09;41.26;33.58;44.15;;
72686;Laerm;61365;52.162;4.500;2023-08-08T08:45:38;41.22;33.69;43.61;;
72686;Laerm;61365;52.162;4.500;2023-08-08T08:48:10;41.22;32.17;43.82;;
72686;Laerm;61365;52.162;4.500;2023-08-08T08:50:38;41.29;32.84;43.79;;
72686;Laerm;61365;52.162;4.500;2023-08-08T08:53:05;41.20;31.45;43.97;;
72686;Laerm;61365;52.162;4.500;2023-08-08T08:55:31;41.15;32.18;43.41;;
72686;Laerm;61365;52.162;4.500;2023-08-08T08:57:58;40.94;31.53;43.52;;
72686;Laerm;61365;52.162;4.500;2023-08-08T09:00:24;41.11;32.90;44.15;;
72686;Laerm;61365;52.162;4.500;2023-08-08T09:02:52;41.15;32.12;44.58;;
72686;Laerm;61365;52.162;4.500;2023-08-08T09:05:21;41.03;32.89;43.50;;
72686;Laerm;61365;52.162;4.500;2023-08-08T09:07:48;40.93;32.08;43.56;;
72686;Laerm;61365;52.162;4.500;2023-08-08T09:10:18;40.96;32.06;43.58;;
72686;Laerm;61365;52.162;4.500;2023-08-08T09:12:45;41.07;32.64;44.29;;
72686;Laerm;61365;52.162;4.500;2023-08-08T09:15:12;41.01;33.73;43.53;;
72686;Laerm;61365;52.162;4.500;2023-08-08T09:17:43;40.91;33.30;43.43;;
72686;Laerm;61365;52.162;4.500;2023-08-08T09:20:12;41.18;31.36;44.18;;
72686;Laerm;61365;52.162;4.500;2023-08-08T09:22:38;40.93;33.43;43.56;;
72686;Laerm;61365;52.162;4.500;2023-08-08T09:25:06;40.88;32.51;44.45;;
72686;Laerm;61365;52.162;4.500;2023-08-08T09:27:34;41.21;32.36;44.24;;
72686;Laerm;61365;52.162;4.500;2023-08-08T09:30:01;41.28;34.22;43.72;;
72686;Laerm;61365;52.162;4.500;2023-08-08T09:32:30;41.16;31.65;44.03;;
72686;Laerm;61365;52.162;4.500;2023-08-08T09:34:57;41.29;32.68;44.07;;
72686;Laerm;61365;52.162;4.500;2023-08-08T09:37:23;41.28;32.56;43.94;;
72686;Laerm;61365;52.162;4.500;2023-08-08T09:40:03;41.25;31.45;43.71;;
72686;Laerm;61365;52.162;4.500;2023-08-08T09:42:31;41.24;32.86;43.59;;
72686;Laerm;61365;52.162;4.500;2023-08-08T09:44:58;41.18;33.55;43.62;;
72686;Laerm;61365;52.162;4.500;2023-08-08T09:47:25;40.98;32.79;43.37;;
72686;Laerm;61365;52.162;4.500;2023-08-08T09:50:00;41.03;33.55;43.53;;
72686;Laerm;61365;52.162;4.500;2023-08-08T09:52:29;41.19;32.92;43.96;;
72686;Laerm;61365;52.162;4.500;2023-08-08T09:54:56;41.17;31.64;46.30;;
72686;Laerm;61365;52.162;4.500;2023-08-08T09:57:22;41.21;32.60;43.56;;
72686;Laerm;61365;52.162;4.500;2023-08-08T09:59:50;41.22;32.59;43.85;;
72686;Laerm;61365;52.162;4.500;2023-08-08T10:02:17;41.25;33.44;44.23;;
72686;Laerm;61365;52.162;4.500;2023-08-08T10:04:47;41.23;32.04;43.54;;
72686;Laerm;61365;52.162;4.500;2023-08-08T10:07:14;41.30;32.59;43.37;;
72686;Laerm;61365;52.162;4.500;2023-08-08T10:09:41;41.25;32.98;44.15;;
72686;Laerm;61365;52.162;4.500;2023-08-08T10:12:07;41.19;33.38;43.33;;
72686;Laerm;61365;52.162;4.500;2023-08-08T10:14:36;41.31;32.53;43.89;;
72686;Laerm;61365;52.162;4.500;2023-08-08T10:17:05;41.35;33.80;43.72;;
72686;Laerm;61365;52.162;4.500;2023-08-08T10:19:32;41.32;33.09;43.78;;
72686;Laerm;61365;52.162;4.500;2023-08-08T10:22:02;41.29;32.16;43.81;;
72686;Laerm;61365;52.162;4.500;2023-08-08T10:24:35;41.29;33.10;43.81;;
72686;Laerm;61365;52.162;4.500;2023-08-08T10:27:03;41.29;33.09;43.92;;
72686;Laerm;61365;52.162;4.500;2023-08-08T10:29:32;41.24;32.09;43.50;;
72686;Laerm;61365;52.162;4.500;2023-08-08T10:32:03;41.31;33.99;44.46;;
72686;Laerm;61365;52.162;4.500;2023-08-08T10:34:40;41.28;32.09;43.55;;
72686;Laerm;61365;52.162;4.500;2023-08-08T10:37:12;41.26;31.82;43.90;;
72686;Laerm;61365;52.162;4.500;2023-08-08T10:42:20;41.34;33.20;43.69;;
72686;Laerm;61365;52.162;4.500;2023-08-08T10:44:57;41.25;32.32;43.66;;
72686;Laerm;61365;52.162;4.500;2023-08-08T10:47:30;41.25;33.61;43.60;;
72686;Laerm;61365;52.162;4.500;2023-08-08T10:50:04;41.21;33.18;46.40;;
72686;Laerm;61365;52.162;4.500;2023-08-08T10:52:33;41.36;32.39;43.94;;
72686;Laerm;61365;52.162;4.500;2023-08-08T10:55:04;41.28;32.68;43.88;;
72686;Laerm;61365;52.162;4.500;2023-08-08T10:57:30;41.05;31.80;43.54;;
72686;Laerm;61365;52.162;4.500;2023-08-08T11:00:16;41.06;32.32;43.55;;
72686;Laerm;61365;52.162;4.500;2023-08-08T11:02:44;41.15;32.80;43.57;;
72686;Laerm;61365;52.162;4.500;2023-08-08T11:05:10;41.24;34.43;43.71;;
72686;Laerm;61365;52.162;4.500;2023-08-08T11:07:37;41.26;32.57;43.70;;
72686;Laerm;61365;52.162;4.500;2023-08-08T11:10:04;41.22;33.52;43.58;;
72686;Laerm;61365;52.162;4.500;2023-08-08T11:12:30;41.28;32.97;43.59;;
72686;Laerm;61365;52.162;4.500;2023-08-08T11:14:56;41.30;32.60;43.84;;
72686;Laerm;61365;52.162;4.500;2023-08-08T11:17:23;41.27;34.12;43.52;;
72686;Laerm;61365;52.162;4.500;2023-08-08T11:19:50;41.33;35.59;43.56;;
72686;Laerm;61365;52.162;4.500;2023-08-08T11:22:16;41.20;34.49;43.74;;
72686;Laerm;61365;52.162;4.500;2023-08-08T11:24:43;41.19;33.35;43.78;;
72686;Laerm;61365;52.162;4.500;2023-08-08T11:27:09;41.14;32.21;43.95;;
72686;Laerm;61365;52.162;4.500;2023-08-08T11:29:35;41.33;33.18;43.64;;
72686;Laerm;61365;52.162;4.500;2023-08-08T11:32:01;41.31;33.39;43.78;;
72686;Laerm;61365;52.162;4.500;2023-08-08T11:34:32;41.45;32.79;43.86;;
72686;Laerm;61365;52.162;4.500;2023-08-08T11:37:00;41.47;33.05;43.64;;
72686;Laerm;61365;52.162;4.500;2023-08-08T11:39:27;41.18;33.19;43.47;;
72686;Laerm;61365;52.162;4.500;2023-08-08T11:41:53;41.26;33.46;43.58;;
72686;Laerm;61365;52.162;4.500;2023-08-08T11:44:20;41.21;33.69;43.53;;
72686;Laerm;61365;52.162;4.500;2023-08-08T11:46:46;41.20;33.14;43.47;;
72686;Laerm;61365;52.162;4.500;2023-08-08T11:49:14;41.25;31.71;43.60;;
72686;Laerm;61365;52.162;4.500;2023-08-08T11:51:43;41.27;32.40;43.51;;
72686;Laerm;61365;52.162;4.500;2023-08-08T11:54:09;41.21;33.17;43.53;;
72686;Laerm;61365;52.162;4.500;2023-08-08T11:56:36;41.19;33.70;43.44;;
72686;Laerm;61365;52.162;4.500;2023-08-08T11:59:03;41.18;32.17;43.46;;
72686;Laerm;61365;52.162;4.500;2023-08-08T12:01:32;41.42;32.78;44.30;;
72686;Laerm;61365;52.162;4.500;2023-08-08T12:04:05;41.27;34.54;43.72;;
72686;Laerm;61365;52.162;4.500;2023-08-08T12:06:32;41.29;34.50;43.47;;
72686;Laerm;61365;52.162;4.500;2023-08-08T12:08:58;41.29;32.95;43.83;;
72686;Laerm;61365;52.162;4.500;2023-08-08T12:11:24;41.28;32.86;43.81;;
72686;Laerm;61365;52.162;4.500;2023-08-08T12:13:50;41.31;32.95;43.56;;
72686;Laerm;61365;52.162;4.500;2023-08-08T12:16:16;41.29;32.76;43.85;;
72686;Laerm;61365;52.162;4.500;2023-08-08T12:18:43;41.23;33.97;43.49;;
72686;Laerm;61365;52.162;4.500;2023-08-08T12:21:09;41.20;32.67;43.81;;
72686;Laerm;61365;52.162;4.500;2023-08-08T12:23:36;41.44;34.19;43.74;;
72686;Laerm;61365;52.162;4.500;2023-08-08T12:26:04;41.39;34.71;43.78;;
72686;Laerm;61365;52.162;4.500;2023-08-08T12:28:34;41.23;33.40;43.57;;
72686;Laerm;61365;52.162;4.500;2023-08-08T12:31:00;41.36;33.59;43.89;;
72686;Laerm;61365;52.162;4.500;2023-08-08T12:33:27;41.34;33.15;43.81;;
72686;Laerm;61365;52.162;4.500;2023-08-08T12:35:53;41.44;35.61;44.33;;
72686;Laerm;61365;52.162;4.500;2023-08-08T12:38:19;41.39;34.37;43.78;;
72686;Laerm;61365;52.162;4.500;2023-08-08T12:40:45;41.39;34.02;43.75;;
72686;Laerm;61365;52.162;4.500;2023-08-08T12:43:12;41.34;31.88;44.06;;
72686;Laerm;61365;52.162;4.500;2023-08-08T12:45:44;41.35;32.63;43.79;;
72686;Laerm;61365;52.162;4.500;2023-08-08T12:48:11;41.43;35.98;43.73;;
72686;Laerm;61365;52.162;4.500;2023-08-08T12:50:38;41.37;33.39;43.72;;
72686;Laerm;61365;52.162;4.500;2023-08-08T12:53:04;41.41;34.78;43.64;;
72686;Laerm;61365;52.162;4.500;2023-08-08T12:55:31;41.44;33.04;43.72;;
72686;Laerm;61365;52.162;4.500;2023-08-08T12:57:57;41.37;34.32;43.61;;
72686;Laerm;61365;52.162;4.500;2023-08-08T13:00:23;41.42;35.93;43.83;;
72686;Laerm;61365;52.162;4.500;2023-08-08T13:02:49;41.39;35.52;43.55;;
72686;Laerm;61365;52.162;4.500;2023-08-08T13:05:15;41.38;34.66;43.57;;
72686;Laerm;61365;52.162;4.500;2023-08-08T13:07:41;41.38;34.99;43.64;;
72686;Laerm;61365;52.162;4.500;2023-08-08T13:10:08;41.38;34.52;44.13;;
72686;Laerm;61365;52.162;4.500;2023-08-08T13:12:34;41.33;32.17;46.77;;
72686;Laerm;61365;52.162;4.500;2023-08-08T13:15:01;41.42;36.80;43.65;;
72686;Laerm;61365;52.162;4.500;2023-08-08T13:17:27;41.39;36.64;43.73;;
72686;Laerm;61365;52.162;4.500;2023-08-08T13:19:53;41.42;33.64;43.49;;
72686;Laerm;61365;52.162;4.500;2023-08-08T13:22:19;41.32;35.35;43.82;;
72686;Laerm;61365;52.162;4.500;2023-08-08T13:24:46;41.35;33.93;44.00;;
72686;Laerm;61365;52.162;4.500;2023-08-08T13:27:12;41.23;32.75;43.43;;
72686;Laerm;61365;52.162;4.500;2023-08-08T13:29:38;41.25;34.18;43.81;;
72686;Laerm;61365;52.162;4.500;2023-08-08T13:32:04;41.44;34.21;43.86;;
72686;Laerm;61365;52.162;4.500;2023-08-08T13:34:30;41.20;33.86;43.52;;
72686;Laerm;61365;52.162;4.500;2023-08-08T13:36:56;41.38;32.82;43.76;;
72686;Laerm;61365;52.162;4.500;2023-08-08T13:39:22;41.38;32.52;43.81;;
72686;Laerm;61365;52.162;4.500;2023-08-08T13:41:49;41.36;33.36;43.59;;
72686;Laerm;61365;52.162;4.500;2023-08-08T13:44:15;41.39;34.40;43.74;;
72686;Laerm;61365;52.162;4.500;2023-08-08T13:46:41;41.35;32.61;43.59;;